sensor_id;sensor_type;location;lat;lon;timestamp;pressure;altitude;pressure_sealevel;temperature;humidity
76808;BME280;65758;45.458;11.062;2023-03-31T00:02:14;101170.48;;;13.38;64.60
76808;BME280;65758;45.458;11.062;2023-03-31T00:04:41;101170.78;;;13.36;64.65
76808;BME280;65758;45.458;11.062;2023-03-31T00:07:13;101166.20;;;13.34;64.40
76808;BME280;65758;45.458;11.062;2023-03-31T00:09:42;101166.23;;;13.32;64.55
76808;BME280;65758;45.458;11.062;2023-03-31T00:12:14;101167.66;;;13.33;64.56
76808;BME280;65758;45.458;11.062;2023-03-31T00:14:43;101164.55;;;13.34;64.58
76808;BME280;65758;45.458;11.062;2023-03-31T00:17:09;101161.06;;;13.39;64.82
76808;BME280;65758;45.458;11.062;2023-03-31T00:19:38;101157.27;;;13.44;64.81
76808;BME280;65758;45.458;11.062;2023-03-31T00:22:06;101155.50;;;13.48;64.82
76808;BME280;65758;45.458;11.062;2023-03-31T00:24:34;101149.45;;;13.52;64.79
76808;BME280;65758;45.458;11.062;2023-03-31T00:27:02;101146.61;;;13.53;64.76
76808;BME280;65758;45.458;11.062;2023-03-31T00:29:30;101141.66;;;13.52;64.84
76808;BME280;65758;45.458;11.062;2023-03-31T00:31:57;101137.18;;;13.51;64.93
76808;BME280;65758;45.458;11.062;2023-03-31T00:34:26;101133.30;;;13.50;64.65
76808;BME280;65758;45.458;11.062;2023-03-31T00:36:53;101129.73;;;13.49;64.67
76808;BME280;65758;45.458;11.062;2023-03-31T00:39:22;101128.45;;;13.47;64.57
76808;BME280;65758;45.458;11.062;2023-03-31T00:41:53;101130.73;;;13.47;64.79
76808;BME280;65758;45.458;11.062;2023-03-31T00:44:21;101126.70;;;13.46;64.63
76808;BME280;65758;45.458;11.062;2023-03-31T00:46:53;101123.85;;;13.44;64.66
76808;BME280;65758;45.458;11.062;2023-03-31T00:49:31;101119.68;;;13.42;64.51
76808;BME280;65758;45.458;11.062;2023-03-31T00:52:21;101117.50;;;13.41;64.55
76808;BME280;65758;45.458;11.062;2023-03-31T00:54:53;101115.19;;;13.38;64.68
76808;BME280;65758;45.458;11.062;2023-03-31T00:57:21;101110.06;;;13.38;64.77
76808;BME280;65758;45.458;11.062;2023-03-31T00:59:52;101103.44;;;13.39;64.62
76808;BME280;65758;45.458;11.062;2023-03-31T01:02:22;101103.54;;;13.41;64.83
76808;BME280;65758;45.458;11.062;2023-03-31T01:04:53;101104.77;;;13.41;64.68
76808;BME280;65758;45.458;11.062;2023-03-31T01:07:28;101103.89;;;13.43;64.52
76808;BME280;65758;45.458;11.062;2023-03-31T01:09:59;101098.21;;;13.41;64.84
76808;BME280;65758;45.458;11.062;2023-03-31T01:12:27;101097.49;;;13.38;64.94
76808;BME280;65758;45.458;11.062;2023-03-31T01:14:54;101096.85;;;13.34;65.13
76808;BME280;65758;45.458;11.062;2023-03-31T01:17:21;101096.15;;;13.31;65.14
76808;BME280;65758;45.458;11.062;2023-03-31T01:31:18;101076.27;;;13.15;65.99
76808;BME280;65758;45.458;11.062;2023-03-31T01:36:57;101069.77;;;13.25;65.59
76808;BME280;65758;45.458;11.062;2023-03-31T01:42:33;101063.61;;;13.27;65.76
76808;BME280;65758;45.458;11.062;2023-03-31T01:48:39;101069.42;;;13.20;65.68
76808;BME280;65758;45.458;11.062;2023-03-31T01:51:32;101075.31;;;13.14;65.89
76808;BME280;65758;45.458;11.062;2023-03-31T01:57:22;101068.61;;;13.03;66.09
76808;BME280;65758;45.458;11.062;2023-03-31T02:02:01;101056.65;;;12.95;66.37
76808;BME280;65758;45.458;11.062;2023-03-31T02:04:41;101048.84;;;12.97;66.53
76808;BME280;65758;45.458;11.062;2023-03-31T02:07:15;101041.68;;;13.01;66.59
76808;BME280;65758;45.458;11.062;2023-03-31T02:09:48;101032.33;;;13.01;66.70
76808;BME280;65758;45.458;11.062;2023-03-31T02:12:18;101024.89;;;12.99;66.57
76808;BME280;65758;45.458;11.062;2023-03-31T02:14:49;101030.95;;;13.00;66.55
76808;BME280;65758;45.458;11.062;2023-03-31T02:17:21;101021.22;;;13.02;66.99
76808;BME280;65758;45.458;11.062;2023-03-31T02:20:02;101018.82;;;13.00;66.86
76808;BME280;65758;45.458;11.062;2023-03-31T02:22:34;101021.10;;;12.99;66.70
76808;BME280;65758;45.458;11.062;2023-03-31T02:25:05;101018.08;;;12.97;66.98
76808;BME280;65758;45.458;11.062;2023-03-31T02:27:39;101008.31;;;12.95;66.78
76808;BME280;65758;45.458;11.062;2023-03-31T02:30:09;101013.14;;;12.95;67.20
76808;BME280;65758;45.458;11.062;2023-03-31T02:32:42;101019.56;;;12.99;67.06
76808;BME280;65758;45.458;11.062;2023-03-31T02:35:18;101024.49;;;13.03;66.94
76808;BME280;65758;45.458;11.062;2023-03-31T02:37:47;101021.13;;;13.07;67.16
76808;BME280;65758;45.458;11.062;2023-03-31T02:40:21;101017.89;;;13.09;66.96
76808;BME280;65758;45.458;11.062;2023-03-31T02:42:48;101014.09;;;13.10;66.85
76808;BME280;65758;45.458;11.062;2023-03-31T02:45:40;101017.86;;;13.10;66.79
76808;BME280;65758;45.458;11.062;2023-03-31T02:48:10;101016.43;;;13.10;66.78
76808;BME280;65758;45.458;11.062;2023-03-31T03:00:05;101016.63;;;13.13;66.78
76808;BME280;65758;45.458;11.062;2023-03-31T03:06:04;101023.47;;;13.20;66.93
76808;BME280;65758;45.458;11.062;2023-03-31T03:08:52;101028.02;;;13.21;66.69
76808;BME280;65758;45.458;11.062;2023-03-31T03:11:30;101024.52;;;13.22;66.42
76808;BME280;65758;45.458;11.062;2023-03-31T03:14:02;101024.09;;;13.23;66.65
76808;BME280;65758;45.458;11.062;2023-03-31T03:16:38;101016.65;;;13.22;66.61
76808;BME280;65758;45.458;11.062;2023-03-31T03:19:07;101008.49;;;13.21;66.64
76808;BME280;65758;45.458;11.062;2023-03-31T03:21:34;101004.78;;;13.18;66.78
76808;BME280;65758;45.458;11.062;2023-03-31T03:24:01;101000.75;;;13.15;67.07
76808;BME280;65758;45.458;11.062;2023-03-31T03:26:28;100998.55;;;13.14;66.90
76808;BME280;65758;45.458;11.062;2023-03-31T03:28:55;100998.15;;;13.13;67.06
76808;BME280;65758;45.458;11.062;2023-03-31T03:31:22;100987.39;;;13.14;66.95
76808;BME280;65758;45.458;11.062;2023-03-31T03:33:49;100983.29;;;13.17;66.96
76808;BME280;65758;45.458;11.062;2023-03-31T03:36:17;100981.69;;;13.19;66.97
76808;BME280;65758;45.458;11.062;2023-03-31T03:38:44;100976.39;;;13.19;66.88
76808;BME280;65758;45.458;11.062;2023-03-31T03:41:11;100980.63;;;13.19;66.97
76808;BME280;65758;45.458;11.062;2023-03-31T03:43:37;100981.85;;;13.17;67.18
76808;BME280;65758;45.458;11.062;2023-03-31T03:46:04;100985.91;;;13.14;67.10
76808;BME280;65758;45.458;11.062;2023-03-31T03:48:31;100981.94;;;13.12;67.01
76808;BME280;65758;45.458;11.062;2023-03-31T03:51:01;100976.38;;;13.08;66.84
76808;BME280;65758;45.458;11.062;2023-03-31T03:53:28;100976.00;;;13.04;67.25
76808;BME280;65758;45.458;11.062;2023-03-31T03:55:54;100973.00;;;13.00;67.10
76808;BME280;65758;45.458;11.062;2023-03-31T03:58:21;100966.38;;;12.98;67.24
76808;BME280;65758;45.458;11.062;2023-03-31T04:00:48;100966.45;;;12.95;67.26
76808;BME280;65758;45.458;11.062;2023-03-31T04:03:14;100961.55;;;12.95;67.56
76808;BME280;65758;45.458;11.062;2023-03-31T04:05:42;100958.31;;;13.00;67.62
76808;BME280;65758;45.458;11.062;2023-03-31T04:08:09;100952.95;;;13.03;67.58
76808;BME280;65758;45.458;11.062;2023-03-31T04:10:35;100955.85;;;13.05;67.67
76808;BME280;65758;45.458;11.062;2023-03-31T04:13:02;100963.13;;;13.05;67.84
76808;BME280;65758;45.458;11.062;2023-03-31T04:15:28;100965.48;;;13.07;67.58
76808;BME280;65758;45.458;11.062;2023-03-31T04:17:55;100968.20;;;13.06;67.55
76808;BME280;65758;45.458;11.062;2023-03-31T04:20:24;100968.91;;;13.02;67.66
76808;BME280;65758;45.458;11.062;2023-03-31T04:22:56;100966.77;;;12.97;67.43
76808;BME280;65758;45.458;11.062;2023-03-31T04:25:23;100963.92;;;12.93;67.55
76808;BME280;65758;45.458;11.062;2023-03-31T04:27:51;100965.10;;;12.92;67.56
76808;BME280;65758;45.458;11.062;2023-03-31T04:30:23;100967.33;;;12.93;67.56
76808;BME280;65758;45.458;11.062;2023-03-31T04:32:55;100962.81;;;12.95;67.72
76808;BME280;65758;45.458;11.062;2023-03-31T04:35:24;100954.59;;;13.00;67.80
76808;BME280;65758;45.458;11.062;2023-03-31T04:37:52;100954.44;;;13.03;67.89
76808;BME280;65758;45.458;11.062;2023-03-31T04:40:25;100964.98;;;13.05;67.71
76808;BME280;65758;45.458;11.062;2023-03-31T04:42:52;100963.55;;;13.07;67.73
76808;BME280;65758;45.458;11.062;2023-03-31T04:45:19;100957.02;;;13.08;67.95
76808;BME280;65758;45.458;11.062;2023-03-31T04:47:46;100952.67;;;13.05;67.89
76808;BME280;65758;45.458;11.062;2023-03-31T04:50:13;100945.37;;;13.03;68.34
76808;BME280;65758;45.458;11.062;2023-03-31T04:52:44;100936.47;;;13.03;68.28
76808;BME280;65758;45.458;11.062;2023-03-31T04:55:10;100937.34;;;13.03;68.02
76808;BME280;65758;45.458;11.062;2023-03-31T04:57:37;100929.42;;;13.05;68.03
76808;BME280;65758;45.458;11.062;2023-03-31T05:00:05;100937.83;;;13.10;68.22
76808;BME280;65758;45.458;11.062;2023-03-31T05:02:36;100934.34;;;13.14;68.28
76808;BME280;65758;45.458;11.062;2023-03-31T05:05:03;100934.55;;;13.15;67.76
76808;BME280;65758;45.458;11.062;2023-03-31T05:07:31;100939.14;;;13.14;67.97
76808;BME280;65758;45.458;11.062;2023-03-31T05:09:58;100950.02;;;13.12;67.68
76808;BME280;65758;45.458;11.062;2023-03-31T05:12:24;100959.66;;;13.11;68.13
76808;BME280;65758;45.458;11.062;2023-03-31T05:14:51;100950.77;;;13.09;67.94
76808;BME280;65758;45.458;11.062;2023-03-31T05:17:18;100936.58;;;13.07;68.10
76808;BME280;65758;45.458;11.062;2023-03-31T05:19:45;100930.62;;;13.06;68.13
76808;BME280;65758;45.458;11.062;2023-03-31T05:22:12;100928.60;;;13.07;67.72
76808;BME280;65758;45.458;11.062;2023-03-31T05:24:38;100928.85;;;13.11;67.58
76808;BME280;65758;45.458;11.062;2023-03-31T05:27:05;100926.17;;;13.14;68.26
76808;BME280;65758;45.458;11.062;2023-03-31T05:29:32;100920.44;;;13.18;68.19
76808;BME280;65758;45.458;11.062;2023-03-31T05:31:58;100924.96;;;13.21;68.18
76808;BME280;65758;45.458;11.062;2023-03-31T05:34:25;100923.05;;;13.22;68.08
76808;BME280;65758;45.458;11.062;2023-03-31T05:36:52;100917.58;;;13.23;68.02
76808;BME280;65758;45.458;11.062;2023-03-31T05:39:19;100908.17;;;13.20;68.05
76808;BME280;65758;45.458;11.062;2023-03-31T05:41:46;100906.97;;;13.18;67.94
76808;BME280;65758;45.458;11.062;2023-03-31T05:44:14;100902.59;;;13.16;68.11
76808;BME280;65758;45.458;11.062;2023-03-31T05:46:41;100910.86;;;13.17;68.14
76808;BME280;65758;45.458;11.062;2023-03-31T05:49:08;100922.35;;;13.20;68.27
76808;BME280;65758;45.458;11.062;2023-03-31T05:51:35;100922.71;;;13.21;68.09
76808;BME280;65758;45.458;11.062;2023-03-31T05:54:02;100926.13;;;13.22;68.07
76808;BME280;65758;45.458;11.062;2023-03-31T05:56:29;100929.47;;;13.24;68.14
76808;BME280;65758;45.458;11.062;2023-03-31T05:58:58;100925.41;;;13.24;67.88
76808;BME280;65758;45.458;11.062;2023-03-31T06:01:26;100926.96;;;13.24;67.99
76808;BME280;65758;45.458;11.062;2023-03-31T06:03:53;100918.67;;;13.25;68.03
76808;BME280;65758;45.458;11.062;2023-03-31T06:06:21;100906.30;;;13.23;68.02
76808;BME280;65758;45.458;11.062;2023-03-31T06:08:48;100905.13;;;13.22;67.73
76808;BME280;65758;45.458;11.062;2023-03-31T06:11:20;100908.35;;;13.20;68.00
76808;BME280;65758;45.458;11.062;2023-03-31T06:13:47;100902.64;;;13.20;68.17
76808;BME280;65758;45.458;11.062;2023-03-31T06:16:15;100898.39;;;13.23;68.06
76808;BME280;65758;45.458;11.062;2023-03-31T06:18:43;100900.29;;;13.24;68.18
76808;BME280;65758;45.458;11.062;2023-03-31T06:21:15;100902.86;;;13.24;68.04
76808;BME280;65758;45.458;11.062;2023-03-31T06:23:44;100906.27;;;13.25;67.90
76808;BME280;65758;45.458;11.062;2023-03-31T06:26:16;100902.20;;;13.25;67.97
76808;BME280;65758;45.458;11.062;2023-03-31T06:28:45;100899.05;;;13.25;67.80
76808;BME280;65758;45.458;11.062;2023-03-31T06:31:14;100896.49;;;13.26;68.09
76808;BME280;65758;45.458;11.062;2023-03-31T06:33:42;100890.05;;;13.25;68.07
76808;BME280;65758;45.458;11.062;2023-03-31T06:36:11;100886.09;;;13.23;68.13
76808;BME280;65758;45.458;11.062;2023-03-31T06:38:38;100883.42;;;13.24;68.24
76808;BME280;65758;45.458;11.062;2023-03-31T06:41:08;100878.67;;;13.25;68.22
76808;BME280;65758;45.458;11.062;2023-03-31T06:43:37;100875.10;;;13.28;68.22
76808;BME280;65758;45.458;11.062;2023-03-31T06:46:04;100867.70;;;13.31;68.24
76808;BME280;65758;45.458;11.062;2023-03-31T06:48:31;100869.88;;;13.33;68.18
76808;BME280;65758;45.458;11.062;2023-03-31T06:51:00;100862.27;;;13.35;68.11
76808;BME280;65758;45.458;11.062;2023-03-31T06:53:27;100857.81;;;13.36;68.28
76808;BME280;65758;45.458;11.062;2023-03-31T06:55:54;100859.99;;;13.38;68.20
76808;BME280;65758;45.458;11.062;2023-03-31T06:58:21;100861.34;;;13.39;68.10
76808;BME280;65758;45.458;11.062;2023-03-31T07:00:49;100855.25;;;13.40;68.25
76808;BME280;65758;45.458;11.062;2023-03-31T07:03:16;100856.23;;;13.39;67.91
76808;BME280;65758;45.458;11.062;2023-03-31T07:05:48;100864.73;;;13.39;67.90
76808;BME280;65758;45.458;11.062;2023-03-31T07:08:16;100866.58;;;13.40;67.73
76808;BME280;65758;45.458;11.062;2023-03-31T07:10:44;100863.61;;;13.41;67.89
76808;BME280;65758;45.458;11.062;2023-03-31T07:13:17;100856.73;;;13.45;67.99
76808;BME280;65758;45.458;11.062;2023-03-31T07:15:47;100836.77;;;13.46;67.90
76808;BME280;65758;45.458;11.062;2023-03-31T07:18:15;100826.13;;;13.47;67.96
76808;BME280;65758;45.458;11.062;2023-03-31T07:20:42;100825.90;;;13.46;67.65
76808;BME280;65758;45.458;11.062;2023-03-31T07:23:09;100835.48;;;13.43;67.83
76808;BME280;65758;45.458;11.062;2023-03-31T07:25:36;100844.26;;;13.43;67.94
76808;BME280;65758;45.458;11.062;2023-03-31T07:28:03;100837.30;;;13.45;67.79
76808;BME280;65758;45.458;11.062;2023-03-31T07:30:31;100838.91;;;13.48;67.62
76808;BME280;65758;45.458;11.062;2023-03-31T07:32:58;100836.33;;;13.51;67.74
76808;BME280;65758;45.458;11.062;2023-03-31T07:35:25;100832.88;;;13.54;67.79
76808;BME280;65758;45.458;11.062;2023-03-31T07:37:52;100825.80;;;13.58;67.58
76808;BME280;65758;45.458;11.062;2023-03-31T07:40:22;100825.93;;;13.61;67.78
76808;BME280;65758;45.458;11.062;2023-03-31T07:42:50;100822.81;;;13.65;67.80
76808;BME280;65758;45.458;11.062;2023-03-31T07:45:23;100823.13;;;13.66;67.70
76808;BME280;65758;45.458;11.062;2023-03-31T07:47:50;100823.98;;;13.68;67.63
76808;BME280;65758;45.458;11.062;2023-03-31T07:50:19;100823.38;;;13.68;67.45
76808;BME280;65758;45.458;11.062;2023-03-31T07:52:47;100827.79;;;13.68;67.51
76808;BME280;65758;45.458;11.062;2023-03-31T07:55:14;100826.95;;;13.69;67.54
76808;BME280;65758;45.458;11.062;2023-03-31T07:57:42;100822.10;;;13.70;67.25
76808;BME280;65758;45.458;11.062;2023-03-31T08:00:13;100813.67;;;13.72;67.24
76808;BME280;65758;45.458;11.062;2023-03-31T08:02:40;100801.05;;;13.77;67.19
76808;BME280;65758;45.458;11.062;2023-03-31T08:05:13;100793.02;;;13.80;67.13
76808;BME280;65758;45.458;11.062;2023-03-31T08:07:42;100791.61;;;13.86;67.08
76808;BME280;65758;45.458;11.062;2023-03-31T08:10:12;100797.80;;;13.95;66.92
76808;BME280;65758;45.458;11.062;2023-03-31T08:12:39;100803.54;;;14.01;66.68
76808;BME280;65758;45.458;11.062;2023-03-31T08:15:07;100812.44;;;14.06;66.59
76808;BME280;65758;45.458;11.062;2023-03-31T08:17:34;100813.13;;;14.11;66.14
76808;BME280;65758;45.458;11.062;2023-03-31T08:20:01;100812.66;;;14.16;66.29
76808;BME280;65758;45.458;11.062;2023-03-31T08:22:33;100808.72;;;14.23;66.26
76808;BME280;65758;45.458;11.062;2023-03-31T08:25:00;100808.00;;;14.30;65.88
76808;BME280;65758;45.458;11.062;2023-03-31T08:27:26;100808.84;;;14.35;65.68
76808;BME280;65758;45.458;11.062;2023-03-31T08:29:53;100801.41;;;14.39;65.54
76808;BME280;65758;45.458;11.062;2023-03-31T08:32:23;100788.08;;;14.41;65.10
76808;BME280;65758;45.458;11.062;2023-03-31T08:34:50;100786.48;;;14.42;64.91
76808;BME280;65758;45.458;11.062;2023-03-31T08:37:17;100787.38;;;14.42;64.66
76808;BME280;65758;45.458;11.062;2023-03-31T08:39:43;100787.52;;;14.44;64.70
76808;BME280;65758;45.458;11.062;2023-03-31T08:42:44;100791.54;;;14.48;64.64
76808;BME280;65758;45.458;11.062;2023-03-31T08:45:35;100791.23;;;14.49;64.62
76808;BME280;65758;45.458;11.062;2023-03-31T08:48:18;100785.27;;;14.51;64.41
76808;BME280;65758;45.458;11.062;2023-03-31T08:50:52;100777.56;;;14.52;64.30
76808;BME280;65758;45.458;11.062;2023-03-31T08:53:27;100775.69;;;14.51;64.28
76808;BME280;65758;45.458;11.062;2023-03-31T08:55:55;100767.64;;;14.51;64.29
76808;BME280;65758;45.458;11.062;2023-03-31T08:58:40;100758.23;;;14.49;64.26
76808;BME280;65758;45.458;11.062;2023-03-31T09:10:33;100778.04;;;14.47;64.47
76808;BME280;65758;45.458;11.062;2023-03-31T09:18:30;100787.55;;;14.56;64.17
76808;BME280;65758;45.458;11.062;2023-03-31T09:29:01;100751.25;;;14.56;63.77
76808;BME280;65758;45.458;11.062;2023-03-31T09:31:30;100746.30;;;14.57;64.02
76808;BME280;65758;45.458;11.062;2023-03-31T09:34:00;100741.23;;;14.60;64.23
76808;BME280;65758;45.458;11.062;2023-03-31T09:36:27;100739.67;;;14.63;63.90
76808;BME280;65758;45.458;11.062;2023-03-31T09:38:54;100739.98;;;14.65;63.80
76808;BME280;65758;45.458;11.062;2023-03-31T09:41:21;100739.89;;;14.67;63.95
76808;BME280;65758;45.458;11.062;2023-03-31T09:43:47;100733.98;;;14.69;64.10
76808;BME280;65758;45.458;11.062;2023-03-31T09:46:20;100732.13;;;14.71;63.98
76808;BME280;65758;45.458;11.062;2023-03-31T09:48:59;100728.37;;;14.74;63.89
76808;BME280;65758;45.458;11.062;2023-03-31T09:51:29;100729.16;;;14.76;63.84
76808;BME280;65758;45.458;11.062;2023-03-31T09:54:09;100729.86;;;14.78;63.75
76808;BME280;65758;45.458;11.062;2023-03-31T09:59:17;100713.36;;;14.84;63.68
76808;BME280;65758;45.458;11.062;2023-03-31T10:01:46;100708.55;;;14.85;63.65
76808;BME280;65758;45.458;11.062;2023-03-31T10:04:33;100706.56;;;14.83;63.70
76808;BME280;65758;45.458;11.062;2023-03-31T10:07:03;100696.00;;;14.85;63.70
76808;BME280;65758;45.458;11.062;2023-03-31T10:09:31;100686.06;;;14.92;63.77
76808;BME280;65758;45.458;11.062;2023-03-31T10:12:08;100685.58;;;15.01;63.94
76808;BME280;65758;45.458;11.062;2023-03-31T10:14:44;100680.48;;;15.08;63.59
76808;BME280;65758;45.458;11.062;2023-03-31T10:17:14;100680.13;;;15.11;63.68
76808;BME280;65758;45.458;11.062;2023-03-31T10:19:53;100669.98;;;15.16;63.43
76808;BME280;65758;45.458;11.062;2023-03-31T10:24:49;100669.55;;;15.22;63.43
76808;BME280;65758;45.458;11.062;2023-03-31T10:27:27;100668.92;;;15.25;63.48
76808;BME280;65758;45.458;11.062;2023-03-31T10:29:59;100661.95;;;15.32;63.18
76808;BME280;65758;45.458;11.062;2023-03-31T10:32:33;100658.17;;;15.36;63.07
76808;BME280;65758;45.458;11.062;2023-03-31T10:35:23;100654.95;;;15.40;62.94
76808;BME280;65758;45.458;11.062;2023-03-31T10:37:57;100656.04;;;15.43;62.69
76808;BME280;65758;45.458;11.062;2023-03-31T10:40:27;100654.56;;;15.45;62.68
76808;BME280;65758;45.458;11.062;2023-03-31T10:43:01;100653.92;;;15.51;62.54
76808;BME280;65758;45.458;11.062;2023-03-31T10:45:35;100657.81;;;15.57;62.51
76808;BME280;65758;45.458;11.062;2023-03-31T10:48:08;100651.75;;;15.65;62.55
76808;BME280;65758;45.458;11.062;2023-03-31T10:50:42;100644.34;;;15.74;62.24
76808;BME280;65758;45.458;11.062;2023-03-31T10:53:12;100645.64;;;15.86;61.89
76808;BME280;65758;45.458;11.062;2023-03-31T10:56:00;100642.03;;;15.97;61.36
76808;BME280;65758;45.458;11.062;2023-03-31T10:59:04;100641.17;;;16.16;61.42
76808;BME280;65758;45.458;11.062;2023-03-31T11:07:44;100615.08;;;16.50;60.33
76808;BME280;65758;45.458;11.062;2023-03-31T11:10:33;100599.70;;;16.61;60.00
76808;BME280;65758;45.458;11.062;2023-03-31T11:13:25;100587.24;;;16.73;59.94
76808;BME280;65758;45.458;11.062;2023-03-31T11:19:23;100567.27;;;17.10;58.73
76808;BME280;65758;45.458;11.062;2023-03-31T11:21:57;100558.38;;;17.24;58.19
76808;BME280;65758;45.458;11.062;2023-03-31T11:24:35;100550.92;;;17.36;57.96
76808;BME280;65758;45.458;11.062;2023-03-31T11:27:25;100546.06;;;17.41;58.03
76808;BME280;65758;45.458;11.062;2023-03-31T11:42:08;100496.89;;;18.00;56.02
76808;BME280;65758;45.458;11.062;2023-03-31T11:44:51;100496.02;;;18.14;55.52
76808;BME280;65758;45.458;11.062;2023-03-31T11:47:27;100485.96;;;18.35;54.85
76808;BME280;65758;45.458;11.062;2023-03-31T11:50:11;100467.48;;;18.54;54.13
76808;BME280;65758;45.458;11.062;2023-03-31T11:52:47;100460.44;;;18.74;53.88
76808;BME280;65758;45.458;11.062;2023-03-31T11:55:18;100454.34;;;18.96;53.30
76808;BME280;65758;45.458;11.062;2023-03-31T11:58:03;100452.63;;;19.16;52.60
76808;BME280;65758;45.458;11.062;2023-03-31T12:00:37;100446.91;;;19.23;52.10
76808;BME280;65758;45.458;11.062;2023-03-31T12:03:22;100443.61;;;19.30;51.83
76808;BME280;65758;45.458;11.062;2023-03-31T12:06:02;100437.97;;;19.42;51.42
76808;BME280;65758;45.458;11.062;2023-03-31T12:08:45;100432.89;;;19.51;50.63
76808;BME280;65758;45.458;11.062;2023-03-31T12:14:00;100419.31;;;19.61;49.89
76808;BME280;65758;45.458;11.062;2023-03-31T12:16:44;100408.34;;;19.68;49.82
76808;BME280;65758;45.458;11.062;2023-03-31T12:19:18;100406.20;;;19.71;49.45
76808;BME280;65758;45.458;11.062;2023-03-31T12:21:52;100411.04;;;19.60;48.98
76808;BME280;65758;45.458;11.062;2023-03-31T12:24:20;100406.95;;;19.48;49.53
76808;BME280;65758;45.458;11.062;2023-03-31T12:27:10;100399.16;;;19.44;50.16
76808;BME280;65758;45.458;11.062;2023-03-31T12:29:42;100385.40;;;19.44;49.65
76808;BME280;65758;45.458;11.062;2023-03-31T12:32:19;100384.73;;;19.45;49.68
76808;BME280;65758;45.458;11.062;2023-03-31T12:34:57;100379.64;;;19.43;49.31
76808;BME280;65758;45.458;11.062;2023-03-31T12:40:45;100365.52;;;19.28;49.26
76808;BME280;65758;45.458;11.062;2023-03-31T12:52:05;100342.86;;;19.08;50.00
76808;BME280;65758;45.458;11.062;2023-03-31T12:55:01;100343.40;;;19.04;49.84
76808;BME280;65758;45.458;11.062;2023-03-31T12:57:35;100333.70;;;18.98;49.80
76808;BME280;65758;45.458;11.062;2023-03-31T13:02:40;100318.81;;;18.88;49.92
76808;BME280;65758;45.458;11.062;2023-03-31T13:08:07;100313.99;;;18.81;50.09
76808;BME280;65758;45.458;11.062;2023-03-31T13:10:56;100302.97;;;18.74;50.24
76808;BME280;65758;45.458;11.062;2023-03-31T13:13:25;100289.14;;;18.66;50.36
76808;BME280;65758;45.458;11.062;2023-03-31T13:15:54;100284.89;;;18.58;50.57
76808;BME280;65758;45.458;11.062;2023-03-31T13:18:23;100277.98;;;18.58;50.54
76808;BME280;65758;45.458;11.062;2023-03-31T13:21:01;100272.33;;;18.56;50.78
76808;BME280;65758;45.458;11.062;2023-03-31T13:23:35;100272.86;;;18.52;51.06
76808;BME280;65758;45.458;11.062;2023-03-31T13:26:03;100264.77;;;18.53;51.50
76808;BME280;65758;45.458;11.062;2023-03-31T13:28:40;100254.92;;;18.61;51.13
76808;BME280;65758;45.458;11.062;2023-03-31T13:31:10;100247.00;;;18.73;50.77
76808;BME280;65758;45.458;11.062;2023-03-31T13:51:30;100215.05;;;18.43;50.90
76808;BME280;65758;45.458;11.062;2023-03-31T14:02:52;100201.27;;;18.19;51.38
76808;BME280;65758;45.458;11.062;2023-03-31T14:08:15;100189.88;;;18.15;51.76
76808;BME280;65758;45.458;11.062;2023-03-31T14:10:44;100182.98;;;18.18;51.51
76808;BME280;65758;45.458;11.062;2023-03-31T14:13:13;100179.66;;;18.18;51.71
76808;BME280;65758;45.458;11.062;2023-03-31T14:15:52;100176.64;;;18.16;52.01
76808;BME280;65758;45.458;11.062;2023-03-31T14:18:29;100174.38;;;18.14;51.77
76808;BME280;65758;45.458;11.062;2023-03-31T14:21:20;100167.09;;;18.11;51.81
76808;BME280;65758;45.458;11.062;2023-03-31T14:37:35;100142.33;;;17.73;52.65
76808;BME280;65758;45.458;11.062;2023-03-31T14:40:02;100135.63;;;17.66;52.89
76808;BME280;65758;45.458;11.062;2023-03-31T14:42:38;100122.11;;;17.61;52.99
76808;BME280;65758;45.458;11.062;2023-03-31T14:45:16;100117.43;;;17.56;52.84
76808;BME280;65758;45.458;11.062;2023-03-31T14:48:01;100114.58;;;17.49;52.81
76808;BME280;65758;45.458;11.062;2023-03-31T14:50:33;100100.02;;;17.45;52.86
76808;BME280;65758;45.458;11.062;2023-03-31T14:53:01;100090.13;;;17.41;52.94
76808;BME280;65758;45.458;11.062;2023-03-31T14:55:32;100084.45;;;17.40;52.79
76808;BME280;65758;45.458;11.062;2023-03-31T14:58:29;100084.52;;;17.38;53.00
76808;BME280;65758;45.458;11.062;2023-03-31T15:00:57;100079.91;;;17.35;52.57
76808;BME280;65758;45.458;11.062;2023-03-31T15:03:25;100083.52;;;17.32;52.34
76808;BME280;65758;45.458;11.062;2023-03-31T15:05:57;100082.61;;;17.27;52.48
76808;BME280;65758;45.458;11.062;2023-03-31T15:08:25;100072.02;;;17.23;52.28
76808;BME280;65758;45.458;11.062;2023-03-31T15:10:56;100066.06;;;17.20;52.53
76808;BME280;65758;45.458;11.062;2023-03-31T15:13:41;100058.72;;;17.18;52.37
76808;BME280;65758;45.458;11.062;2023-03-31T15:19:19;100046.91;;;17.13;52.53
76808;BME280;65758;45.458;11.062;2023-03-31T15:21:55;100048.87;;;17.10;52.62
76808;BME280;65758;45.458;11.062;2023-03-31T15:24:22;100043.14;;;17.08;52.91
76808;BME280;65758;45.458;11.062;2023-03-31T15:30:06;100046.11;;;17.02;53.24
76808;BME280;65758;45.458;11.062;2023-03-31T15:32:36;100054.58;;;17.00;53.42
76808;BME280;65758;45.458;11.062;2023-03-31T15:35:20;100051.21;;;16.98;53.71
76808;BME280;65758;45.458;11.062;2023-03-31T15:37:50;100052.16;;;16.96;53.44
76808;BME280;65758;45.458;11.062;2023-03-31T15:40:23;100051.91;;;16.94;53.39
76808;BME280;65758;45.458;11.062;2023-03-31T15:43:13;100055.45;;;16.92;53.82